sensor_id;sensor_type;location;lat;lon;timestamp;pressure;altitude;pressure_sealevel;temperature;humidity
8894;BME280;4483;48.622;9.230;2022-09-20T00:00:05;98384.00;;;7.99;100.00
8894;BME280;4483;48.622;9.230;2022-09-20T00:02:32;98385.75;;;7.97;100.00
8894;BME280;4483;48.622;9.230;2022-09-20T00:05:01;98379.03;;;7.92;100.00
8894;BME280;4483;48.622;9.230;2022-09-20T00:07:28;98379.91;;;7.91;100.00
8894;BME280;4483;48.622;9.230;2022-09-20T00:09:56;98382.53;;;7.88;100.00
8894;BME280;4483;48.622;9.230;2022-09-20T00:12:23;98384.34;;;7.83;100.00
8894;BME280;4483;48.622;9.230;2022-09-20T00:14:51;98387.81;;;7.80;100.00
8894;BME280;4483;48.622;9.230;2022-09-20T00:17:22;98369.00;;;7.81;100.00
8894;BME280;4483;48.622;9.230;2022-09-20T00:19:50;98380.91;;;7.84;100.00
8894;BME280;4483;48.622;9.230;2022-09-20T00:22:17;98375.72;;;7.87;100.00
8894;BME280;4483;48.622;9.230;2022-09-20T00:24:45;98373.91;;;7.92;100.00
8894;BME280;4483;48.622;9.230;2022-09-20T00:27:13;98365.34;;;7.91;100.00
8894;BME280;4483;48.622;9.230;2022-09-20T00:29:40;98367.09;;;7.91;100.00
8894;BME280;4483;48.622;9.230;2022-09-20T00:32:08;98361.94;;;7.92;100.00
8894;BME280;4483;48.622;9.230;2022-09-20T00:34:38;98368.69;;;7.95;100.00
8894;BME280;4483;48.622;9.230;2022-09-20T00:37:22;98382.38;;;7.95;100.00
8894;BME280;4483;48.622;9.230;2022-09-20T00:39:48;98373.81;;;7.95;100.00
8894;BME280;4483;48.622;9.230;2022-09-20T00:42:15;98373.00;;;7.93;100.00
8894;BME280;4483;48.622;9.230;2022-09-20T00:44:46;98369.72;;;7.88;100.00
8894;BME280;4483;48.622;9.230;2022-09-20T00:47:21;98370.59;;;7.87;100.00
8894;BME280;4483;48.622;9.230;2022-09-20T00:49:55;98368.97;;;7.83;100.00
8894;BME280;4483;48.622;9.230;2022-09-20T00:52:31;98372.53;;;7.76;100.00
8894;BME280;4483;48.622;9.230;2022-09-20T00:55:02;98377.63;;;7.77;100.00
8894;BME280;4483;48.622;9.230;2022-09-20T00:57:32;98373.41;;;7.75;100.00
8894;BME280;4483;48.622;9.230;2022-09-20T01:00:03;98370.03;;;7.73;100.00
8894;BME280;4483;48.622;9.230;2022-09-20T01:02:35;98371.81;;;7.69;100.00
8894;BME280;4483;48.622;9.230;2022-09-20T01:05:06;98376.13;;;7.67;100.00
8894;BME280;4483;48.622;9.230;2022-09-20T01:07:33;98371.13;;;7.61;100.00
8894;BME280;4483;48.622;9.230;2022-09-20T01:10:00;98375.50;;;7.58;100.00
8894;BME280;4483;48.622;9.230;2022-09-20T01:12:30;98369.59;;;7.53;100.00
8894;BME280;4483;48.622;9.230;2022-09-20T01:15:04;98362.00;;;7.48;100.00
8894;BME280;4483;48.622;9.230;2022-09-20T01:17:34;98368.88;;;7.46;100.00
8894;BME280;4483;48.622;9.230;2022-09-20T01:20:12;98354.47;;;7.41;100.00
8894;BME280;4483;48.622;9.230;2022-09-20T01:26:06;98363.09;;;7.37;100.00
8894;BME280;4483;48.622;9.230;2022-09-20T01:28:42;98370.78;;;7.37;100.00
8894;BME280;4483;48.622;9.230;2022-09-20T01:31:16;98366.56;;;7.33;100.00
8894;BME280;4483;48.622;9.230;2022-09-20T01:33:48;98368.34;;;7.29;100.00
8894;BME280;4483;48.622;9.230;2022-09-20T01:36:22;98365.84;;;7.26;100.00
8894;BME280;4483;48.622;9.230;2022-09-20T01:38:57;98362.41;;;7.27;100.00
8894;BME280;4483;48.622;9.230;2022-09-20T01:41:32;98359.88;;;7.26;100.00
8894;BME280;4483;48.622;9.230;2022-09-20T01:44:09;98364.28;;;7.19;100.00
8894;BME280;4483;48.622;9.230;2022-09-20T01:47:01;98360.13;;;7.13;100.00
8894;BME280;4483;48.622;9.230;2022-09-20T01:49:44;98350.91;;;7.03;100.00
8894;BME280;4483;48.622;9.230;2022-09-20T01:55:56;98360.91;;;7.17;100.00
8894;BME280;4483;48.622;9.230;2022-09-20T01:58:59;98355.84;;;7.14;100.00
8894;BME280;4483;48.622;9.230;2022-09-20T02:05:12;98351.44;;;7.21;100.00
8894;BME280;4483;48.622;9.230;2022-09-20T02:08:06;98365.81;;;7.28;100.00
8894;BME280;4483;48.622;9.230;2022-09-20T02:11:01;98355.66;;;7.25;100.00
8894;BME280;4483;48.622;9.230;2022-09-20T02:13:49;98357.25;;;7.30;100.00
8894;BME280;4483;48.622;9.230;2022-09-20T02:16:35;98358.88;;;7.33;100.00
8894;BME280;4483;48.622;9.230;2022-09-20T02:19:25;98349.53;;;7.32;100.00
8894;BME280;4483;48.622;9.230;2022-09-20T02:22:08;98358.91;;;7.31;100.00
8894;BME280;4483;48.622;9.230;2022-09-20T02:24:40;98365.78;;;7.29;100.00
8894;BME280;4483;48.622;9.230;2022-09-20T02:27:16;98367.56;;;7.26;100.00
8894;BME280;4483;48.622;9.230;2022-09-20T02:29:57;98358.13;;;7.28;100.00
8894;BME280;4483;48.622;9.230;2022-09-20T02:32:42;98364.16;;;7.27;100.00
8894;BME280;4483;48.622;9.230;2022-09-20T02:35:28;98365.00;;;7.26;100.00
8894;BME280;4483;48.622;9.230;2022-09-20T02:38:08;98356.50;;;7.24;100.00
8894;BME280;4483;48.622;9.230;2022-09-20T02:40:54;98351.38;;;7.24;100.00
8894;BME280;4483;48.622;9.230;2022-09-20T02:43:26;98353.09;;;7.25;100.00
8894;BME280;4483;48.622;9.230;2022-09-20T02:46:02;98352.22;;;7.24;100.00
8894;BME280;4483;48.622;9.230;2022-09-20T02:48:37;98357.34;;;7.24;100.00
8894;BME280;4483;48.622;9.230;2022-09-20T02:51:18;98354.78;;;7.24;100.00
8894;BME280;4483;48.622;9.230;2022-09-20T02:53:53;98359.06;;;7.25;100.00
8894;BME280;4483;48.622;9.230;2022-09-20T02:56:25;98357.38;;;7.23;100.00
8894;BME280;4483;48.622;9.230;2022-09-20T02:59:02;98353.97;;;7.22;100.00
8894;BME280;4483;48.622;9.230;2022-09-20T03:01:47;98359.09;;;7.22;100.00
8894;BME280;4483;48.622;9.230;2022-09-20T03:04:24;98353.16;;;7.20;100.00
8894;BME280;4483;48.622;9.230;2022-09-20T03:07:02;98360.81;;;7.23;100.00
8894;BME280;4483;48.622;9.230;2022-09-20T03:09:36;98360.78;;;7.25;100.00
8894;BME280;4483;48.622;9.230;2022-09-20T03:12:13;98368.47;;;7.25;100.00
8894;BME280;4483;48.622;9.230;2022-09-20T03:14:51;98363.28;;;7.26;100.00
8894;BME280;4483;48.622;9.230;2022-09-20T03:17:29;98368.38;;;7.28;100.00
8894;BME280;4483;48.622;9.230;2022-09-20T03:20:07;98373.47;;;7.31;100.00
8894;BME280;4483;48.622;9.230;2022-09-20T03:22:52;98373.47;;;7.29;100.00
8894;BME280;4483;48.622;9.230;2022-09-20T03:25:41;98379.38;;;7.34;100.00
8894;BME280;4483;48.622;9.230;2022-09-20T03:28:28;98386.22;;;7.34;100.00
8894;BME280;4483;48.622;9.230;2022-09-20T03:31:05;98378.59;;;7.31;100.00
8894;BME280;4483;48.622;9.230;2022-09-20T03:33:43;98375.16;;;7.32;100.00
8894;BME280;4483;48.622;9.230;2022-09-20T03:36:24;98372.75;;;7.23;100.00
8894;BME280;4483;48.622;9.230;2022-09-20T03:39:18;98376.28;;;7.17;100.00
8894;BME280;4483;48.622;9.230;2022-09-20T03:42:06;98367.81;;;7.13;100.00
8894;BME280;4483;48.622;9.230;2022-09-20T03:48:00;98374.72;;;7.10;100.00
8894;BME280;4483;48.622;9.230;2022-09-20T03:50:46;98368.75;;;7.09;100.00
8894;BME280;4483;48.622;9.230;2022-09-20T03:53:36;98368.75;;;7.09;100.00
8894;BME280;4483;48.622;9.230;2022-09-20T03:56:26;98376.34;;;7.14;100.00
8894;BME280;4483;48.622;9.230;2022-09-20T03:59:12;98381.41;;;7.17;100.00
8894;BME280;4483;48.622;9.230;2022-09-20T04:01:58;98381.34;;;7.20;100.00
8894;BME280;4483;48.622;9.230;2022-09-20T04:04:31;98370.38;;;7.13;100.00
8894;BME280;4483;48.622;9.230;2022-09-20T04:07:09;98387.44;;;7.14;100.00
8894;BME280;4483;48.622;9.230;2022-09-20T04:10:05;98384.81;;;7.16;100.00
8894;BME280;4483;48.622;9.230;2022-09-20T04:12:48;98385.66;;;7.20;100.00
8894;BME280;4483;48.622;9.230;2022-09-20T04:15:30;98386.44;;;7.22;100.00
8894;BME280;4483;48.622;9.230;2022-09-20T04:18:02;98382.19;;;7.21;100.00
8894;BME280;4483;48.622;9.230;2022-09-20T04:20:36;98376.28;;;7.17;100.00
8894;BME280;4483;48.622;9.230;2022-09-20T04:23:14;98385.56;;;7.23;100.00
8894;BME280;4483;48.622;9.230;2022-09-20T04:25:46;98378.75;;;7.23;100.00
8894;BME280;4483;48.622;9.230;2022-09-20T04:28:22;98379.59;;;7.22;100.00
8894;BME280;4483;48.622;9.230;2022-09-20T04:31:05;98378.66;;;7.26;100.00
8894;BME280;4483;48.622;9.230;2022-09-20T04:33:41;98384.56;;;7.31;100.00
8894;BME280;4483;48.622;9.230;2022-09-20T04:36:24;98390.47;;;7.35;100.00
8894;BME280;4483;48.622;9.230;2022-09-20T04:39:02;98393.91;;;7.34;100.00
8894;BME280;4483;48.622;9.230;2022-09-20T04:41:52;98393.91;;;7.34;100.00
8894;BME280;4483;48.622;9.230;2022-09-20T04:44:49;98390.44;;;7.36;100.00
8894;BME280;4483;48.622;9.230;2022-09-20T04:47:42;98393.81;;;7.38;100.00
8894;BME280;4483;48.622;9.230;2022-09-20T04:54:09;98398.13;;;7.38;100.00
8894;BME280;4483;48.622;9.230;2022-09-20T04:56:58;98398.16;;;7.35;100.00
8894;BME280;4483;48.622;9.230;2022-09-20T04:59:49;98412.59;;;7.39;100.00
8894;BME280;4483;48.622;9.230;2022-09-20T05:02:41;98415.13;;;7.40;100.00
8894;BME280;4483;48.622;9.230;2022-09-20T05:05:31;98415.06;;;7.45;100.00
8894;BME280;4483;48.622;9.230;2022-09-20T05:08:36;98416.69;;;7.49;100.00
8894;BME280;4483;48.622;9.230;2022-09-20T05:17:41;98425.16;;;7.52;100.00
8894;BME280;4483;48.622;9.230;2022-09-20T05:20:50;98423.44;;;7.53;100.00
8894;BME280;4483;48.622;9.230;2022-09-20T05:23:39;98429.34;;;7.58;100.00
8894;BME280;4483;48.622;9.230;2022-09-20T05:26:21;98430.94;;;7.62;100.00
8894;BME280;4483;48.622;9.230;2022-09-20T05:28:57;98426.63;;;7.65;100.00
8894;BME280;4483;48.622;9.230;2022-09-20T05:31:36;98429.97;;;7.67;100.00
8894;BME280;4483;48.622;9.230;2022-09-20T05:34:14;98439.41;;;7.67;100.00
8894;BME280;4483;48.622;9.230;2022-09-20T05:36:53;98433.44;;;7.66;100.00
8894;BME280;4483;48.622;9.230;2022-09-20T05:39:39;98432.53;;;7.67;100.00
8894;BME280;4483;48.622;9.230;2022-09-20T05:42:16;98429.09;;;7.70;100.00
8894;BME280;4483;48.622;9.230;2022-09-20T05:45:05;98432.41;;;7.75;100.00
8894;BME280;4483;48.622;9.230;2022-09-20T05:47:48;98425.53;;;7.77;100.00
8894;BME280;4483;48.622;9.230;2022-09-20T05:50:34;98437.78;;;8.04;100.00
8894;BME280;4483;48.622;9.230;2022-09-20T05:56:11;98440.41;;;8.01;100.00
8894;BME280;4483;48.622;9.230;2022-09-20T05:58:59;98447.25;;;8.02;100.00
8894;BME280;4483;48.622;9.230;2022-09-20T06:01:33;98446.28;;;8.06;100.00
8894;BME280;4483;48.622;9.230;2022-09-20T06:04:12;98444.63;;;8.05;100.00
8894;BME280;4483;48.622;9.230;2022-09-20T06:06:53;98448.72;;;8.12;100.00
8894;BME280;4483;48.622;9.230;2022-09-20T06:09:48;98451.13;;;8.20;100.00
8894;BME280;4483;48.622;9.230;2022-09-20T06:12:35;98441.66;;;8.23;100.00
8894;BME280;4483;48.622;9.230;2022-09-20T06:15:17;98449.09;;;8.35;100.00
8894;BME280;4483;48.622;9.230;2022-09-20T06:17:58;98443.88;;;8.40;100.00
8894;BME280;4483;48.622;9.230;2022-09-20T06:20:35;98453.78;;;8.56;100.00
8894;BME280;4483;48.622;9.230;2022-09-20T06:23:18;98451.94;;;8.61;100.00
8894;BME280;4483;48.622;9.230;2022-09-20T06:25:51;98464.72;;;8.64;100.00
8894;BME280;4483;48.622;9.230;2022-09-20T06:28:32;98455.28;;;8.65;100.00
8894;BME280;4483;48.622;9.230;2022-09-20T06:31:00;98466.41;;;8.65;100.00
8894;BME280;4483;48.622;9.230;2022-09-20T06:33:30;98466.41;;;8.65;100.00
8894;BME280;4483;48.622;9.230;2022-09-20T06:36:01;98460.41;;;8.65;100.00
8894;BME280;4483;48.622;9.230;2022-09-20T06:39:10;98457.88;;;8.63;100.00
8894;BME280;4483;48.622;9.230;2022-09-20T06:42:00;98460.41;;;8.65;100.00
8894;BME280;4483;48.622;9.230;2022-09-20T06:44:27;98460.31;;;8.69;100.00
8894;BME280;4483;48.622;9.230;2022-09-20T06:46:55;98465.28;;;8.75;100.00
8894;BME280;4483;48.622;9.230;2022-09-20T06:49:24;98460.88;;;8.82;100.00
8894;BME280;4483;48.622;9.230;2022-09-20T06:51:53;98465.88;;;8.88;100.00
8894;BME280;4483;48.622;9.230;2022-09-20T06:54:23;98465.75;;;8.92;100.00
8894;BME280;4483;48.622;9.230;2022-09-20T06:56:51;98463.84;;;9.00;100.00
8894;BME280;4483;48.622;9.230;2022-09-20T06:59:20;98467.06;;;9.08;100.00
8894;BME280;4483;48.622;9.230;2022-09-20T07:01:47;98475.09;;;9.29;100.00
8894;BME280;4483;48.622;9.230;2022-09-20T07:04:15;98465.97;;;9.51;100.00
8894;BME280;4483;48.622;9.230;2022-09-20T07:06:42;98476.06;;;9.89;100.00
8894;BME280;4483;48.622;9.230;2022-09-20T07:09:10;98480.91;;;10.30;100.00
8894;BME280;4483;48.622;9.230;2022-09-20T07:11:44;98474.56;;;10.42;100.00
8894;BME280;4483;48.622;9.230;2022-09-20T07:14:13;98473.44;;;10.50;100.00
8894;BME280;4483;48.622;9.230;2022-09-20T07:16:47;98469.88;;;10.54;100.00
8894;BME280;4483;48.622;9.230;2022-09-20T07:19:17;98470.75;;;10.55;100.00
8894;BME280;4483;48.622;9.230;2022-09-20T07:21:48;98482.56;;;10.60;100.00
8894;BME280;4483;48.622;9.230;2022-09-20T07:24:19;98478.38;;;10.58;100.00
8894;BME280;4483;48.622;9.230;2022-09-20T07:26:58;98476.44;;;10.64;100.00
8894;BME280;4483;48.622;9.230;2022-09-20T07:29:27;98458.22;;;10.70;100.00
8894;BME280;4483;48.622;9.230;2022-09-20T07:31:56;98472.56;;;11.05;100.00
8894;BME280;4483;48.622;9.230;2022-09-20T07:34:23;98484.22;;;11.17;100.00
8894;BME280;4483;48.622;9.230;2022-09-20T07:36:51;98486.88;;;11.40;100.00
8894;BME280;4483;48.622;9.230;2022-09-20T07:39:20;98485.34;;;11.59;100.00
8894;BME280;4483;48.622;9.230;2022-09-20T07:41:48;98485.63;;;12.00;100.00
8894;BME280;4483;48.622;9.230;2022-09-20T07:44:17;98485.34;;;12.53;100.00
8894;BME280;4483;48.622;9.230;2022-09-20T07:46:49;98482.97;;;12.91;99.86
8894;BME280;4483;48.622;9.230;2022-09-20T07:49:16;98482.03;;;13.16;97.56
8894;BME280;4483;48.622;9.230;2022-09-20T07:51:45;98484.63;;;13.56;96.14
8894;BME280;4483;48.622;9.230;2022-09-20T07:54:12;98476.69;;;13.60;95.25
8894;BME280;4483;48.622;9.230;2022-09-20T07:56:41;98489.31;;;13.68;93.85
8894;BME280;4483;48.622;9.230;2022-09-20T07:59:08;98494.50;;;14.45;93.97
8894;BME280;4483;48.622;9.230;2022-09-20T08:01:37;98490.06;;;14.47;92.44
8894;BME280;4483;48.622;9.230;2022-09-20T08:04:05;98494.50;;;14.64;91.20
8894;BME280;4483;48.622;9.230;2022-09-20T08:06:35;98491.91;;;14.45;90.20
8894;BME280;4483;48.622;9.230;2022-09-20T08:09:02;98494.81;;;14.19;89.12
8894;BME280;4483;48.622;9.230;2022-09-20T08:11:29;98495.69;;;14.38;87.75
8894;BME280;4483;48.622;9.230;2022-09-20T08:13:58;98505.19;;;14.19;87.50
8894;BME280;4483;48.622;9.230;2022-09-20T08:16:27;98501.00;;;13.96;86.70
8894;BME280;4483;48.622;9.230;2022-09-20T08:18:57;98507.81;;;14.18;88.14
8894;BME280;4483;48.622;9.230;2022-09-20T08:21:27;98503.69;;;15.06;88.39
8894;BME280;4483;48.622;9.230;2022-09-20T08:23:57;98503.28;;;15.50;86.84
8894;BME280;4483;48.622;9.230;2022-09-20T08:26:25;98500.72;;;15.67;82.24
8894;BME280;4483;48.622;9.230;2022-09-20T08:28:57;98495.88;;;16.42;82.32
8894;BME280;4483;48.622;9.230;2022-09-20T08:31:25;98498.00;;;17.13;81.23
8894;BME280;4483;48.622;9.230;2022-09-20T08:33:54;98497.66;;;17.78;78.31
8894;BME280;4483;48.622;9.230;2022-09-20T08:36:25;98498.81;;;18.31;71.67
8894;BME280;4483;48.622;9.230;2022-09-20T08:38:52;98491.25;;;18.68;69.57
8894;BME280;4483;48.622;9.230;2022-09-20T08:41:24;98496.47;;;19.09;68.66
8894;BME280;4483;48.622;9.230;2022-09-20T08:43:54;98478.41;;;19.58;69.23
8894;BME280;4483;48.622;9.230;2022-09-20T08:46:25;98480.28;;;19.43;66.28
8894;BME280;4483;48.622;9.230;2022-09-20T08:48:53;98480.09;;;19.46;65.03
8894;BME280;4483;48.622;9.230;2022-09-20T08:51:20;98486.56;;;18.73;64.44
8894;BME280;4483;48.622;9.230;2022-09-20T08:53:51;98492.69;;;18.03;64.61
8894;BME280;4483;48.622;9.230;2022-09-20T08:56:18;98495.34;;;17.74;66.31
8894;BME280;4483;48.622;9.230;2022-09-20T08:58:45;98494.84;;;17.38;66.71
8894;BME280;4483;48.622;9.230;2022-09-20T09:01:17;98491.13;;;16.96;65.45
8894;BME280;4483;48.622;9.230;2022-09-20T09:03:46;98483.34;;;16.65;66.38
8894;BME280;4483;48.622;9.230;2022-09-20T09:06:18;98494.56;;;16.50;65.91
8894;BME280;4483;48.622;9.230;2022-09-20T09:08:46;98489.09;;;17.47;65.28
8894;BME280;4483;48.622;9.230;2022-09-20T09:11:19;98474.13;;;18.36;64.00
8894;BME280;4483;48.622;9.230;2022-09-20T09:13:51;98477.34;;;19.35;61.69
8894;BME280;4483;48.622;9.230;2022-09-20T09:16:23;98474.81;;;20.23;58.97
8894;BME280;4483;48.622;9.230;2022-09-20T09:18:50;98472.41;;;21.05;56.21
8894;BME280;4483;48.622;9.230;2022-09-20T09:21:19;98470.66;;;21.75;53.38
8894;BME280;4483;48.622;9.230;2022-09-20T09:23:50;98473.63;;;21.36;52.19
8894;BME280;4483;48.622;9.230;2022-09-20T09:26:21;98476.50;;;20.60;51.30
8894;BME280;4483;48.622;9.230;2022-09-20T09:29:07;98480.97;;;19.97;51.98
8894;BME280;4483;48.622;9.230;2022-09-20T09:31:34;98483.50;;;20.24;51.89
8894;BME280;4483;48.622;9.230;2022-09-20T09:34:02;98468.63;;;20.24;51.03
8894;BME280;4483;48.622;9.230;2022-09-20T09:36:29;98473.03;;;19.86;49.97
8894;BME280;4483;48.622;9.230;2022-09-20T09:39:13;98477.16;;;19.12;50.42
8894;BME280;4483;48.622;9.230;2022-09-20T09:41:43;98477.44;;;18.66;51.27
8894;BME280;4483;48.622;9.230;2022-09-20T09:44:20;98479.44;;;18.35;51.59
8894;BME280;4483;48.622;9.230;2022-09-20T09:46:48;98481.38;;;18.17;52.01
8894;BME280;4483;48.622;9.230;2022-09-20T09:49:17;98473.38;;;19.16;51.30
8894;BME280;4483;48.622;9.230;2022-09-20T09:52:00;98471.97;;;20.14;50.52
8894;BME280;4483;48.622;9.230;2022-09-20T09:54:28;98461.53;;;20.62;48.75
8894;BME280;4483;48.622;9.230;2022-09-20T09:57:07;98455.31;;;21.47;47.15
8894;BME280;4483;48.622;9.230;2022-09-20T09:59:53;98462.13;;;21.95;46.17
8894;BME280;4483;48.622;9.230;2022-09-20T10:02:40;98459.81;;;21.79;45.16
8894;BME280;4483;48.622;9.230;2022-09-20T10:05:15;98462.72;;;21.98;44.49
8894;BME280;4483;48.622;9.230;2022-09-20T10:07:48;98458.72;;;21.71;41.19
8894;BME280;4483;48.622;9.230;2022-09-20T10:10:25;98454.91;;;21.29;43.08
8894;BME280;4483;48.622;9.230;2022-09-20T10:13:08;98450.75;;;20.90;43.57
8894;BME280;4483;48.622;9.230;2022-09-20T10:15:44;98451.06;;;20.62;43.68
8894;BME280;4483;48.622;9.230;2022-09-20T10:18:26;98447.13;;;21.17;43.90
8894;BME280;4483;48.622;9.230;2022-09-20T10:21:07;98439.63;;;21.69;42.90
8894;BME280;4483;48.622;9.230;2022-09-20T10:23:57;98444.91;;;21.34;43.21
8894;BME280;4483;48.622;9.230;2022-09-20T10:26:52;98450.41;;;20.71;43.62
8894;BME280;4483;48.622;9.230;2022-09-20T10:29:35;98460.16;;;19.83;44.60
8894;BME280;4483;48.622;9.230;2022-09-20T10:32:17;98463.97;;;19.13;46.00
8894;BME280;4483;48.622;9.230;2022-09-20T10:35:15;98468.53;;;18.56;46.96
8894;BME280;4483;48.622;9.230;2022-09-20T10:38:04;98478.31;;;17.96;48.56
8894;BME280;4483;48.622;9.230;2022-09-20T10:40:43;98474.97;;;17.51;49.31
8894;BME280;4483;48.622;9.230;2022-09-20T10:43:44;98483.78;;;17.19;50.13
8894;BME280;4483;48.622;9.230;2022-09-20T10:46:22;98469.78;;;17.05;51.17
8894;BME280;4483;48.622;9.230;2022-09-20T10:48:57;98470.81;;;17.03;51.64
8894;BME280;4483;48.622;9.230;2022-09-20T10:51:38;98473.31;;;17.04;51.97
8894;BME280;4483;48.622;9.230;2022-09-20T10:54:16;98469.34;;;17.13;52.02
8894;BME280;4483;48.622;9.230;2022-09-20T10:56:53;98471.47;;;17.52;52.43
8894;BME280;4483;48.622;9.230;2022-09-20T10:59:34;98478.72;;;18.47;51.55
8894;BME280;4483;48.622;9.230;2022-09-20T11:05:38;98464.28;;;18.41;50.56
8894;BME280;4483;48.622;9.230;2022-09-20T11:08:12;98467.63;;;18.29;50.24
8894;BME280;4483;48.622;9.230;2022-09-20T11:10:46;98469.41;;;18.15;50.81
8894;BME280;4483;48.622;9.230;2022-09-20T11:13:34;98468.19;;;18.20;50.36
8894;BME280;4483;48.622;9.230;2022-09-20T11:16:14;98470.13;;;18.45;50.73
8894;BME280;4483;48.622;9.230;2022-09-20T11:18:53;98469.81;;;19.43;49.51
8894;BME280;4483;48.622;9.230;2022-09-20T11:21:35;98439.38;;;20.55;47.26
8894;BME280;4483;48.622;9.230;2022-09-20T11:24:16;98451.16;;;21.21;44.94
8894;BME280;4483;48.622;9.230;2022-09-20T11:26:57;98456.19;;;21.24;44.58
8894;BME280;4483;48.622;9.230;2022-09-20T11:29:35;98450.75;;;20.67;44.44
8894;BME280;4483;48.622;9.230;2022-09-20T11:32:13;98461.81;;;20.09;44.61
8894;BME280;4483;48.622;9.230;2022-09-20T11:34:52;98457.63;;;19.56;45.49
8894;BME280;4483;48.622;9.230;2022-09-20T11:37:31;98464.53;;;19.31;46.55
8894;BME280;4483;48.622;9.230;2022-09-20T11:40:07;98459.28;;;19.45;46.97
8894;BME280;4483;48.622;9.230;2022-09-20T11:42:42;98462.03;;;20.19;46.46
8894;BME280;4483;48.622;9.230;2022-09-20T11:45:11;98454.78;;;20.47;45.55
8894;BME280;4483;48.622;9.230;2022-09-20T11:47:40;98451.66;;;20.42;44.68
8894;BME280;4483;48.622;9.230;2022-09-20T11:50:41;98455.53;;;20.37;44.02
8894;BME280;4483;48.622;9.230;2022-09-20T11:53:20;98456.06;;;20.29;43.85
8894;BME280;4483;48.622;9.230;2022-09-20T11:55:53;98450.31;;;20.24;43.84
8894;BME280;4483;48.622;9.230;2022-09-20T11:58:23;98446.75;;;20.97;43.10
8894;BME280;4483;48.622;9.230;2022-09-20T12:00:53;98444.53;;;21.73;42.37
8894;BME280;4483;48.622;9.230;2022-09-20T12:03:27;98445.56;;;22.39;41.13
8894;BME280;4483;48.622;9.230;2022-09-20T12:05:57;98421.56;;;22.97;36.87
8894;BME280;4483;48.622;9.230;2022-09-20T12:08:30;98432.78;;;22.56;38.57
8894;BME280;4483;48.622;9.230;2022-09-20T12:11:01;98438.75;;;22.03;39.10
8894;BME280;4483;48.622;9.230;2022-09-20T12:13:31;98434.13;;;21.50;39.30
8894;BME280;4483;48.622;9.230;2022-09-20T12:16:03;98433.63;;;21.10;40.10
8894;BME280;4483;48.622;9.230;2022-09-20T12:18:37;98433.97;;;20.69;40.61
8894;BME280;4483;48.622;9.230;2022-09-20T12:21:13;98435.25;;;20.28;41.10
8894;BME280;4483;48.622;9.230;2022-09-20T12:24:19;98445.31;;;19.96;41.54
8894;BME280;4483;48.622;9.230;2022-09-20T12:26:48;98437.16;;;19.63;42.82
8894;BME280;4483;48.622;9.230;2022-09-20T12:29:52;98443.72;;;19.17;43.33
8894;BME280;4483;48.622;9.230;2022-09-20T12:32:44;98437.13;;;18.84;44.18
8894;BME280;4483;48.622;9.230;2022-09-20T12:38:46;98446.56;;;18.46;45.33
8894;BME280;4483;48.622;9.230;2022-09-20T12:41:27;98438.53;;;18.35;45.71
8894;BME280;4483;48.622;9.230;2022-09-20T12:44:27;98431.38;;;18.25;45.33
8894;BME280;4483;48.622;9.230;2022-09-20T12:46:56;98427.84;;;18.26;45.92
8894;BME280;4483;48.622;9.230;2022-09-20T12:49:41;98430.34;;;18.27;46.56
8894;BME280;4483;48.622;9.230;2022-09-20T12:52:49;98425.31;;;18.24;46.24
8894;BME280;4483;48.622;9.230;2022-09-20T12:55:29;98426.34;;;18.07;46.05
8894;BME280;4483;48.622;9.230;2022-09-20T12:58:00;98416.81;;;18.75;45.74
8894;BME280;4483;48.622;9.230;2022-09-20T13:00:32;98418.41;;;19.44;44.36
8894;BME280;4483;48.622;9.230;2022-09-20T13:03:10;98409.31;;;19.99;43.00
8894;BME280;4483;48.622;9.230;2022-09-20T13:05:38;98403.22;;;20.24;42.16
8894;BME280;4483;48.622;9.230;2022-09-20T13:08:15;98403.84;;;20.28;41.77
8894;BME280;4483;48.622;9.230;2022-09-20T13:10:47;98397.09;;;20.49;41.24
8894;BME280;4483;48.622;9.230;2022-09-20T13:13:38;98400.16;;;20.90;40.11
8894;BME280;4483;48.622;9.230;2022-09-20T13:16:15;98393.25;;;21.13;39.95
8894;BME280;4483;48.622;9.230;2022-09-20T13:18:46;98399.75;;;21.31;39.31
8894;BME280;4483;48.622;9.230;2022-09-20T13:21:13;98402.41;;;21.53;38.82
8894;BME280;4483;48.622;9.230;2022-09-20T13:23:47;98396.78;;;21.81;38.37
8894;BME280;4483;48.622;9.230;2022-09-20T13:26:21;98399.50;;;22.02;37.74
8894;BME280;4483;48.622;9.230;2022-09-20T13:28:53;98397.97;;;22.21;37.76
8894;BME280;4483;48.622;9.230;2022-09-20T13:31:26;98398.28;;;22.39;36.65
8894;BME280;4483;48.622;9.230;2022-09-20T13:33:53;98389.56;;;22.49;36.63
8894;BME280;4483;48.622;9.230;2022-09-20T13:36:25;98387.38;;;22.54;35.71
8894;BME280;4483;48.622;9.230;2022-09-20T13:38:55;98391.03;;;21.87;35.89
8894;BME280;4483;48.622;9.230;2022-09-20T13:41:24;98392.47;;;21.91;36.17
8894;BME280;4483;48.622;9.230;2022-09-20T13:43:54;98391.16;;;21.96;35.95
8894;BME280;4483;48.622;9.230;2022-09-20T13:46:23;98389.59;;;22.05;35.89
8894;BME280;4483;48.622;9.230;2022-09-20T13:48:58;98391.16;;;21.85;36.00
8894;BME280;4483;48.622;9.230;2022-09-20T13:51:34;98388.56;;;21.40;36.54
8894;BME280;4483;48.622;9.230;2022-09-20T13:54:17;98401.75;;;21.27;36.72
8894;BME280;4483;48.622;9.230;2022-09-20T13:56:44;98392.13;;;21.28;36.66
8894;BME280;4483;48.622;9.230;2022-09-20T13:59:12;98392.81;;;21.19;36.96
8894;BME280;4483;48.622;9.230;2022-09-20T14:01:43;98391.44;;;21.02;37.25
8894;BME280;4483;48.622;9.230;2022-09-20T14:04:15;98397.47;;;20.79;37.85
8894;BME280;4483;48.622;9.230;2022-09-20T14:06:44;98392.25;;;20.55;38.50
8894;BME280;4483;48.622;9.230;2022-09-20T14:09:18;98400.91;;;20.32;38.40
8894;BME280;4483;48.622;9.230;2022-09-20T14:11:47;98391.09;;;19.98;39.37
8894;BME280;4483;48.622;9.230;2022-09-20T14:14:16;98403.91;;;19.77;40.06
8894;BME280;4483;48.622;9.230;2022-09-20T14:16:44;98402.44;;;19.61;40.38
8894;BME280;4483;48.622;9.230;2022-09-20T14:19:15;98407.94;;;19.44;40.37
8894;BME280;4483;48.622;9.230;2022-09-20T14:21:43;98407.47;;;19.25;40.53
8894;BME280;4483;48.622;9.230;2022-09-20T14:24:28;98406.91;;;19.07;41.03
8894;BME280;4483;48.622;9.230;2022-09-20T14:27:01;98406.66;;;18.97;41.21
8894;BME280;4483;48.622;9.230;2022-09-20T14:29:37;98409.88;;;18.88;41.87
8894;BME280;4483;48.622;9.230;2022-09-20T14:32:08;98404.72;;;18.74;42.37
8894;BME280;4483;48.622;9.230;2022-09-20T14:34:36;98412.78;;;18.57;42.99
8894;BME280;4483;48.622;9.230;2022-09-20T14:37:06;98411.13;;;18.42;43.57
8894;BME280;4483;48.622;9.230;2022-09-20T14:39:45;98422.44;;;18.29;43.37
8894;BME280;4483;48.622;9.230;2022-09-20T14:42:18;98424.13;;;18.16;43.77
8894;BME280;4483;48.622;9.230;2022-09-20T14:44:49;98422.53;;;17.99;44.48